KAL1403 RKSI-RKPK
Flight info
| Callsign | KAL1403 |
|---|---|
| Flight time | 1h 5m |
| Altitude | 27000 |
| Route | DCT OSPOT Y782 TGU Z83 MASTA DCT |
| Aircraft | A21N/M-SDE3FGHIRWY/LB1 |
Departure
| Time | 2026-05-04 13:07 |
|---|---|
| Airport | Incheon International Airport (RKSI) |
Arrival
| Time | 2026-05-04 14:12 |
|---|---|
| Airport | Gimhae International Airport (RKPK) |
| Time | Latitude | Longitude | Altitude | Speed | Heading |
|---|---|---|---|---|---|
| 2026-05-04 12:36 | 37.46717 | 126.44181 | 29 ft | 0 kts | 234° |
| 2026-05-04 12:48 | 37.46718 | 126.44181 | 29 ft | 0 kts | 234° |
| 2026-05-04 12:50 | 37.46720 | 126.44186 | 29 ft | 2 kts | 234° |
| 2026-05-04 12:50 | 37.46729 | 126.44201 | 29 ft | 2 kts | 234° |
| 2026-05-04 12:50 | 37.46737 | 126.44215 | 29 ft | 2 kts | 234° |
| 2026-05-04 12:50 | 37.46744 | 126.44228 | 29 ft | 0 kts | 234° |
| 2026-05-04 12:51 | 37.46752 | 126.44240 | 29 ft | 2 kts | 216° |
| 2026-05-04 12:51 | 37.46765 | 126.44249 | 29 ft | 2 kts | 196° |
| 2026-05-04 12:51 | 37.46780 | 126.44251 | 29 ft | 2 kts | 174° |
| 2026-05-04 12:51 | 37.46795 | 126.44247 | 29 ft | 2 kts | 153° |
| 2026-05-04 12:52 | 37.46802 | 126.44241 | 29 ft | 1 kts | 141° |
| 2026-05-04 12:52 | 37.46807 | 126.44236 | 29 ft | 0 kts | 140° |
| 2026-05-04 12:56 | 37.46802 | 126.44241 | 29 ft | 1 kts | 140° |
| 2026-05-04 12:56 | 37.46785 | 126.44258 | 29 ft | 4 kts | 141° |
| 2026-05-04 12:56 | 37.46759 | 126.44284 | 29 ft | 4 kts | 143° |
| 2026-05-04 12:56 | 37.46743 | 126.44299 | 29 ft | 2 kts | 143° |
| 2026-05-04 12:57 | 37.46675 | 126.44360 | 29 ft | 15 kts | 144° |
| 2026-05-04 12:57 | 37.46590 | 126.44434 | 29 ft | 11 kts | 144° |
| 2026-05-04 12:57 | 37.46555 | 126.44509 | 29 ft | 7 kts | 84° |
| 2026-05-04 12:57 | 37.46579 | 126.44566 | 29 ft | 9 kts | 54° |
| 2026-05-04 12:58 | 37.46589 | 126.44593 | 29 ft | 0 kts | 72° |
| 2026-05-04 12:58 | 37.46587 | 126.44624 | 29 ft | 13 kts | 118° |
| 2026-05-04 12:58 | 37.46441 | 126.44756 | 29 ft | 14 kts | 143° |
| 2026-05-04 12:58 | 37.46327 | 126.44858 | 29 ft | 16 kts | 144° |
| 2026-05-04 12:59 | 37.46234 | 126.44941 | 29 ft | 17 kts | 144° |
| 2026-05-04 12:59 | 37.46134 | 126.45029 | 29 ft | 18 kts | 144° |
| 2026-05-04 12:59 | 37.46027 | 126.45124 | 29 ft | 19 kts | 145° |
| 2026-05-04 12:59 | 37.45917 | 126.45222 | 29 ft | 19 kts | 145° |
| 2026-05-04 13:00 | 37.45805 | 126.45322 | 29 ft | 19 kts | 144° |
| 2026-05-04 13:00 | 37.45698 | 126.45418 | 29 ft | 18 kts | 144° |
| 2026-05-04 13:00 | 37.45590 | 126.45514 | 29 ft | 19 kts | 145° |
| 2026-05-04 13:00 | 37.45478 | 126.45615 | 29 ft | 19 kts | 144° |
| 2026-05-04 13:01 | 37.45381 | 126.45702 | 29 ft | 15 kts | 144° |
| 2026-05-04 13:01 | 37.45304 | 126.45777 | 29 ft | 10 kts | 126° |
| 2026-05-04 13:01 | 37.45310 | 126.45855 | 29 ft | 11 kts | 57° |
| 2026-05-04 13:01 | 37.45345 | 126.45919 | 29 ft | 5 kts | 54° |
| 2026-05-04 13:02 | 37.45354 | 126.45935 | 29 ft | 0 kts | 54° |
| 2026-05-04 13:02 | 37.45354 | 126.45936 | 29 ft | 0 kts | 54° |
| 2026-05-04 13:03 | 37.45367 | 126.45958 | 29 ft | 6 kts | 54° |
| 2026-05-04 13:03 | 37.45398 | 126.46011 | 29 ft | 8 kts | 54° |
| 2026-05-04 13:03 | 37.45448 | 126.46053 | 29 ft | 9 kts | 348° |
| 2026-05-04 13:03 | 37.45486 | 126.46027 | 29 ft | 0 kts | 325° |
| 2026-05-04 13:04 | 37.45490 | 126.46023 | 29 ft | 0 kts | 324° |
| 2026-05-04 13:06 | 37.45607 | 126.45919 | 29 ft | 56 kts | 324° |
| 2026-05-04 13:06 | 37.46132 | 126.45452 | 29 ft | 128 kts | 324° |
| 2026-05-04 13:06 | 37.47023 | 126.44660 | 163 ft | 173 kts | 322° |
| 2026-05-04 13:07 | 37.47998 | 126.43805 | 888 ft | 175 kts | 322° |
| 2026-05-04 13:07 | 37.49000 | 126.42954 | 1583 ft | 173 kts | 325° |
| 2026-05-04 13:07 | 37.50007 | 126.42162 | 2174 ft | 174 kts | 325° |
| 2026-05-04 13:07 | 37.51030 | 126.41344 | 2767 ft | 176 kts | 324° |
| 2026-05-04 13:08 | 37.52029 | 126.40535 | 3318 ft | 178 kts | 324° |
| 2026-05-04 13:08 | 37.53105 | 126.39654 | 3701 ft | 193 kts | 324° |
| 2026-05-04 13:08 | 37.54274 | 126.38693 | 4070 ft | 210 kts | 324° |
| 2026-05-04 13:08 | 37.55701 | 126.38031 | 4394 ft | 235 kts | 356° |
| 2026-05-04 13:09 | 37.57318 | 126.38625 | 4788 ft | 260 kts | 34° |
| 2026-05-04 13:09 | 37.58481 | 126.40457 | 5262 ft | 279 kts | 69° |
| 2026-05-04 13:09 | 37.58646 | 126.42863 | 5957 ft | 284 kts | 104° |
| 2026-05-04 13:09 | 37.57751 | 126.45019 | 6726 ft | 281 kts | 138° |
| 2026-05-04 13:10 | 37.56120 | 126.46378 | 7505 ft | 280 kts | 155° |
| 2026-05-04 13:10 | 37.54442 | 126.47669 | 8240 ft | 287 kts | 147° |
| 2026-05-04 13:10 | 37.52863 | 126.49213 | 8957 ft | 292 kts | 142° |
| 2026-05-04 13:10 | 37.51324 | 126.50892 | 9660 ft | 296 kts | 140° |
| 2026-05-04 13:11 | 37.49789 | 126.52670 | 10333 ft | 301 kts | 139° |
| 2026-05-04 13:11 | 37.48254 | 126.54509 | 10721 ft | 316 kts | 138° |
| 2026-05-04 13:11 | 37.46636 | 126.56490 | 11026 ft | 333 kts | 137° |
| 2026-05-04 13:11 | 37.44943 | 126.58592 | 11327 ft | 350 kts | 137° |
| 2026-05-04 13:12 | 37.43175 | 126.60803 | 11618 ft | 366 kts | 137° |
| 2026-05-04 13:12 | 37.41345 | 126.63103 | 11897 ft | 382 kts | 137° |
| 2026-05-04 13:12 | 37.39504 | 126.65418 | 12156 ft | 396 kts | 137° |
| 2026-05-04 13:12 | 37.38048 | 126.67260 | 12347 ft | 407 kts | 137° |
| 2026-05-04 13:13 | 37.35846 | 126.70051 | 12709 ft | 421 kts | 137° |
| 2026-05-04 13:13 | 37.33755 | 126.72697 | 13308 ft | 426 kts | 137° |
| 2026-05-04 13:13 | 37.31686 | 126.75313 | 13936 ft | 429 kts | 137° |
| 2026-05-04 13:13 | 37.29550 | 126.78005 | 14534 ft | 434 kts | 138° |
| 2026-05-04 13:14 | 37.27420 | 126.80685 | 15122 ft | 439 kts | 138° |
| 2026-05-04 13:14 | 37.25253 | 126.83406 | 15719 ft | 444 kts | 138° |
| 2026-05-04 13:14 | 37.23050 | 126.86170 | 16312 ft | 449 kts | 138° |
| 2026-05-04 13:14 | 37.20835 | 126.88946 | 16899 ft | 454 kts | 139° |
| 2026-05-04 13:15 | 37.18586 | 126.91763 | 17487 ft | 459 kts | 139° |
| 2026-05-04 13:15 | 37.16316 | 126.94602 | 18064 ft | 464 kts | 139° |
| 2026-05-04 13:15 | 37.14014 | 126.97478 | 18643 ft | 468 kts | 139° |
| 2026-05-04 13:15 | 37.11673 | 127.00403 | 19280 ft | 471 kts | 139° |
| 2026-05-04 13:16 | 37.09366 | 127.03280 | 19855 ft | 474 kts | 139° |
| 2026-05-04 13:16 | 37.07032 | 127.06187 | 20419 ft | 478 kts | 139° |
| 2026-05-04 13:16 | 37.04666 | 127.09131 | 20983 ft | 481 kts | 139° |
| 2026-05-04 13:16 | 37.02287 | 127.12090 | 21535 ft | 484 kts | 139° |
| 2026-05-04 13:17 | 36.99922 | 127.15027 | 22053 ft | 487 kts | 139° |
| 2026-05-04 13:17 | 36.97497 | 127.18037 | 22573 ft | 490 kts | 139° |
| 2026-05-04 13:17 | 36.95075 | 127.21040 | 22980 ft | 492 kts | 139° |
| 2026-05-04 13:17 | 36.92644 | 127.24054 | 23086 ft | 493 kts | 139° |
| 2026-05-04 13:18 | 36.90222 | 127.27055 | 23095 ft | 492 kts | 139° |
| 2026-05-04 13:18 | 36.87785 | 127.30059 | 23096 ft | 492 kts | 139° |
| 2026-05-04 13:18 | 36.85611 | 127.32731 | 23097 ft | 492 kts | 139° |
| 2026-05-04 13:18 | 36.83373 | 127.35461 | 23095 ft | 491 kts | 141° |
| 2026-05-04 13:19 | 36.80765 | 127.38112 | 23096 ft | 487 kts | 148° |
| 2026-05-04 13:19 | 36.78268 | 127.40318 | 23097 ft | 486 kts | 149° |
| 2026-05-04 13:19 | 36.76708 | 127.41671 | 23097 ft | 486 kts | 149° |
| 2026-05-04 13:19 | 36.74647 | 127.43460 | 23097 ft | 486 kts | 149° |
| 2026-05-04 13:20 | 36.71868 | 127.45898 | 23097 ft | 487 kts | 149° |
| 2026-05-04 13:20 | 36.69091 | 127.48364 | 23098 ft | 491 kts | 148° |
| 2026-05-04 13:20 | 36.66345 | 127.50824 | 23097 ft | 491 kts | 148° |
| 2026-05-04 13:20 | 36.63582 | 127.53313 | 23097 ft | 491 kts | 148° |
| 2026-05-04 13:21 | 36.60813 | 127.55813 | 23098 ft | 491 kts | 148° |
| 2026-05-04 13:21 | 36.58061 | 127.58301 | 23097 ft | 491 kts | 148° |
| 2026-05-04 13:21 | 36.55293 | 127.60802 | 23097 ft | 491 kts | 148° |
| 2026-05-04 13:21 | 36.52517 | 127.63309 | 23097 ft | 491 kts | 148° |
| 2026-05-04 13:22 | 36.49801 | 127.65762 | 23095 ft | 491 kts | 148° |
| 2026-05-04 13:22 | 36.47004 | 127.68301 | 23097 ft | 491 kts | 148° |
| 2026-05-04 13:22 | 36.44225 | 127.70822 | 23097 ft | 491 kts | 148° |
| 2026-05-04 13:22 | 36.41468 | 127.73317 | 23097 ft | 491 kts | 148° |
| 2026-05-04 13:23 | 36.38703 | 127.75812 | 23097 ft | 491 kts | 148° |
| 2026-05-04 13:23 | 36.35910 | 127.78325 | 23097 ft | 491 kts | 148° |
| 2026-05-04 13:23 | 36.33157 | 127.80799 | 23097 ft | 490 kts | 148° |
| 2026-05-04 13:23 | 36.30408 | 127.83265 | 23097 ft | 491 kts | 148° |
| 2026-05-04 13:24 | 36.27647 | 127.85739 | 23097 ft | 491 kts | 148° |
| 2026-05-04 13:24 | 36.24876 | 127.88220 | 23098 ft | 490 kts | 148° |
| 2026-05-04 13:24 | 36.22096 | 127.90707 | 23099 ft | 491 kts | 148° |
| 2026-05-04 13:25 | 36.16589 | 127.95625 | 23099 ft | 491 kts | 148° |
| 2026-05-04 13:25 | 36.13839 | 127.98078 | 23099 ft | 491 kts | 148° |
| 2026-05-04 13:25 | 36.11051 | 128.00563 | 23099 ft | 490 kts | 148° |
| 2026-05-04 13:25 | 36.08289 | 128.03021 | 22951 ft | 491 kts | 148° |
| 2026-05-04 13:26 | 36.05568 | 128.05443 | 22442 ft | 485 kts | 148° |
| 2026-05-04 13:26 | 36.02858 | 128.07851 | 21943 ft | 480 kts | 148° |
| 2026-05-04 13:26 | 36.00140 | 128.10266 | 21436 ft | 476 kts | 148° |
| 2026-05-04 13:26 | 35.97435 | 128.12665 | 20929 ft | 472 kts | 148° |
| 2026-05-04 13:27 | 35.94787 | 128.15012 | 20428 ft | 468 kts | 148° |
| 2026-05-04 13:27 | 35.92172 | 128.17328 | 19929 ft | 464 kts | 148° |
| 2026-05-04 13:27 | 35.89922 | 128.19321 | 19496 ft | 460 kts | 148° |
| 2026-05-04 13:27 | 35.87336 | 128.21599 | 18995 ft | 456 kts | 148° |
| 2026-05-04 13:28 | 35.84732 | 128.23886 | 18475 ft | 452 kts | 147° |
| 2026-05-04 13:28 | 35.82224 | 128.26091 | 17955 ft | 448 kts | 147° |
| 2026-05-04 13:28 | 35.79681 | 128.28330 | 17424 ft | 444 kts | 147° |
| 2026-05-04 13:28 | 35.77191 | 128.30522 | 16899 ft | 440 kts | 147° |
| 2026-05-04 13:29 | 35.74722 | 128.32695 | 16372 ft | 436 kts | 147° |
| 2026-05-04 13:29 | 35.72276 | 128.34850 | 16060 ft | 433 kts | 147° |
| 2026-05-04 13:29 | 35.69840 | 128.36992 | 15809 ft | 432 kts | 147° |
| 2026-05-04 13:29 | 35.67411 | 128.39128 | 15559 ft | 430 kts | 147° |
| 2026-05-04 13:30 | 35.64999 | 128.41246 | 15310 ft | 428 kts | 146° |
| 2026-05-04 13:30 | 35.62563 | 128.43385 | 15026 ft | 426 kts | 146° |
| 2026-05-04 13:30 | 35.60170 | 128.45485 | 14709 ft | 423 kts | 146° |
| 2026-05-04 13:30 | 35.57790 | 128.47572 | 14282 ft | 421 kts | 146° |
| 2026-05-04 13:31 | 35.55433 | 128.49637 | 13753 ft | 418 kts | 146° |
| 2026-05-04 13:31 | 35.53079 | 128.51697 | 13202 ft | 413 kts | 146° |
| 2026-05-04 13:31 | 35.50760 | 128.53720 | 12651 ft | 409 kts | 146° |
| 2026-05-04 13:31 | 35.48294 | 128.55330 | 12150 ft | 401 kts | 162° |
| 2026-05-04 13:32 | 35.45625 | 128.56151 | 11691 ft | 394 kts | 170° |
| 2026-05-04 13:32 | 35.42918 | 128.56743 | 11048 ft | 392 kts | 171° |
| 2026-05-04 13:32 | 35.40277 | 128.57277 | 10487 ft | 387 kts | 172° |
| 2026-05-04 13:32 | 35.37695 | 128.57790 | 10163 ft | 364 kts | 172° |
| 2026-05-04 13:33 | 35.35273 | 128.58273 | 9634 ft | 344 kts | 172° |
| 2026-05-04 13:33 | 35.32975 | 128.58731 | 9162 ft | 326 kts | 172° |
| 2026-05-04 13:33 | 35.30804 | 128.59168 | 8817 ft | 306 kts | 172° |
| 2026-05-04 13:33 | 35.28802 | 128.59570 | 8684 ft | 282 kts | 172° |
| 2026-05-04 13:34 | 35.26936 | 128.59950 | 8563 ft | 268 kts | 172° |
| 2026-05-04 13:34 | 35.25100 | 128.60324 | 8331 ft | 268 kts | 172° |
| 2026-05-04 13:34 | 35.23270 | 128.60696 | 8043 ft | 266 kts | 172° |
| 2026-05-04 13:34 | 35.21451 | 128.61041 | 7690 ft | 266 kts | 177° |
| 2026-05-04 13:35 | 35.19644 | 128.60883 | 7344 ft | 254 kts | 190° |
| 2026-05-04 13:35 | 35.16142 | 128.60066 | 6736 ft | 258 kts | 192° |
| 2026-05-04 13:35 | 35.14395 | 128.59641 | 6436 ft | 257 kts | 192° |
| 2026-05-04 13:36 | 35.12629 | 128.59206 | 6134 ft | 256 kts | 192° |
| 2026-05-04 13:36 | 35.10915 | 128.58780 | 6005 ft | 249 kts | 192° |
| 2026-05-04 13:36 | 35.09267 | 128.58371 | 5989 ft | 237 kts | 192° |
| 2026-05-04 13:36 | 35.07655 | 128.57971 | 5996 ft | 233 kts | 192° |
| 2026-05-04 13:37 | 35.06059 | 128.57575 | 5997 ft | 234 kts | 192° |
| 2026-05-04 13:37 | 35.04474 | 128.57181 | 5998 ft | 234 kts | 192° |
| 2026-05-04 13:37 | 35.02871 | 128.56782 | 5998 ft | 234 kts | 191° |
| 2026-05-04 13:37 | 35.01274 | 128.56746 | 5909 ft | 230 kts | 162° |
| 2026-05-04 13:38 | 35.00044 | 128.57820 | 5717 ft | 216 kts | 122° |
| 2026-05-04 13:38 | 34.99577 | 128.59483 | 5511 ft | 203 kts | 93° |
| 2026-05-04 13:38 | 34.99636 | 128.61157 | 5269 ft | 195 kts | 82° |
| 2026-05-04 13:38 | 34.99762 | 128.62819 | 4938 ft | 194 kts | 83° |
| 2026-05-04 13:39 | 34.99845 | 128.64447 | 4600 ft | 193 kts | 85° |
| 2026-05-04 13:39 | 34.99894 | 128.66084 | 4269 ft | 191 kts | 87° |
| 2026-05-04 13:39 | 34.99929 | 128.67679 | 4124 ft | 190 kts | 87° |
| 2026-05-04 13:39 | 34.99958 | 128.69296 | 4009 ft | 190 kts | 87° |
| 2026-05-04 13:40 | 34.99985 | 128.70914 | 4009 ft | 191 kts | 88° |
| 2026-05-04 13:40 | 35.00010 | 128.72530 | 3999 ft | 190 kts | 88° |
| 2026-05-04 13:40 | 35.00123 | 128.74132 | 3985 ft | 189 kts | 73° |
| 2026-05-04 13:40 | 35.00698 | 128.75552 | 3961 ft | 188 kts | 50° |
| 2026-05-04 13:41 | 35.01653 | 128.76617 | 3853 ft | 186 kts | 36° |
| 2026-05-04 13:41 | 35.02689 | 128.77545 | 3716 ft | 177 kts | 35° |
| 2026-05-04 13:41 | 35.03654 | 128.78412 | 3622 ft | 174 kts | 36° |
| 2026-05-04 13:42 | 35.05592 | 128.80177 | 3363 ft | 165 kts | 36° |
| 2026-05-04 13:42 | 35.06457 | 128.80972 | 3188 ft | 152 kts | 36° |
| 2026-05-04 13:42 | 35.07301 | 128.81746 | 3068 ft | 152 kts | 36° |
| 2026-05-04 13:42 | 35.08157 | 128.82529 | 2945 ft | 152 kts | 36° |
| 2026-05-04 13:43 | 35.08995 | 128.83299 | 2823 ft | 152 kts | 36° |
| 2026-05-04 13:43 | 35.09835 | 128.84071 | 2701 ft | 151 kts | 36° |
| 2026-05-04 13:43 | 35.10679 | 128.84848 | 2579 ft | 151 kts | 37° |
| 2026-05-04 13:43 | 35.11515 | 128.85637 | 2459 ft | 151 kts | 37° |
| 2026-05-04 13:44 | 35.12344 | 128.86427 | 2340 ft | 151 kts | 37° |
| 2026-05-04 13:44 | 35.13167 | 128.87209 | 2257 ft | 149 kts | 37° |
| 2026-05-04 13:44 | 35.13987 | 128.87987 | 2236 ft | 147 kts | 37° |
| 2026-05-04 13:44 | 35.14779 | 128.88741 | 1921 ft | 145 kts | 37° |
| 2026-05-04 13:45 | 35.15607 | 128.89442 | 1714 ft | 148 kts | 22° |
| 2026-05-04 13:45 | 35.16622 | 128.89642 | 1652 ft | 149 kts | 3° |
| 2026-05-04 13:45 | 35.17657 | 128.89597 | 1620 ft | 149 kts | 355° |
| 2026-05-04 13:45 | 35.18684 | 128.89453 | 1630 ft | 149 kts | 355° |
| 2026-05-04 13:46 | 35.19719 | 128.89319 | 1637 ft | 149 kts | 355° |
| 2026-05-04 13:46 | 35.20744 | 128.89201 | 1494 ft | 149 kts | 0° |
| 2026-05-04 13:46 | 35.21682 | 128.89615 | 1362 ft | 148 kts | 45° |
| 2026-05-04 13:46 | 35.22100 | 128.90739 | 1093 ft | 148 kts | 85° |
| 2026-05-04 13:47 | 35.21859 | 128.91940 | 880 ft | 148 kts | 116° |
| 2026-05-04 13:47 | 35.21298 | 128.92992 | 617 ft | 146 kts | 139° |
| 2026-05-04 13:47 | 35.20358 | 128.93439 | 602 ft | 159 kts | 175° |
| 2026-05-04 13:47 | 35.19197 | 128.93545 | 1172 ft | 175 kts | 173° |
| 2026-05-04 13:48 | 35.17991 | 128.93652 | 1806 ft | 174 kts | 177° |
| 2026-05-04 13:48 | 35.16793 | 128.93674 | 2278 ft | 175 kts | 178° |
| 2026-05-04 13:48 | 35.15566 | 128.93675 | 2680 ft | 180 kts | 182° |
| 2026-05-04 13:48 | 35.14305 | 128.93681 | 3099 ft | 182 kts | 178° |
| 2026-05-04 13:49 | 35.13053 | 128.93694 | 3539 ft | 184 kts | 178° |
| 2026-05-04 13:49 | 35.11702 | 128.93825 | 3811 ft | 204 kts | 174° |
| 2026-05-04 13:49 | 35.10223 | 128.94008 | 3990 ft | 230 kts | 174° |
| 2026-05-04 13:49 | 35.08556 | 128.94215 | 3980 ft | 244 kts | 175° |
| 2026-05-04 13:50 | 35.06870 | 128.94081 | 4028 ft | 248 kts | 190° |
| 2026-05-04 13:50 | 35.05168 | 128.93669 | 4523 ft | 251 kts | 192° |
| 2026-05-04 13:50 | 35.03493 | 128.93249 | 5280 ft | 249 kts | 192° |
| 2026-05-04 13:50 | 35.01761 | 128.92821 | 5767 ft | 255 kts | 192° |
| 2026-05-04 13:51 | 35.00037 | 128.92400 | 5979 ft | 256 kts | 192° |
| 2026-05-04 13:51 | 34.98286 | 128.91975 | 5989 ft | 254 kts | 192° |
| 2026-05-04 13:51 | 34.96533 | 128.91551 | 5995 ft | 254 kts | 192° |
| 2026-05-04 13:51 | 34.94809 | 128.91133 | 6000 ft | 260 kts | 192° |
| 2026-05-04 13:52 | 34.90905 | 128.90178 | 5998 ft | 296 kts | 192° |
| 2026-05-04 13:52 | 34.89009 | 128.89681 | 5996 ft | 291 kts | 194° |
| 2026-05-04 13:52 | 34.87244 | 128.88692 | 5974 ft | 276 kts | 218° |
| 2026-05-04 13:53 | 34.86074 | 128.86923 | 5986 ft | 261 kts | 246° |
| 2026-05-04 13:53 | 34.85650 | 128.84845 | 6005 ft | 252 kts | 261° |
| 2026-05-04 13:53 | 34.85410 | 128.82719 | 5998 ft | 253 kts | 262° |
| 2026-05-04 13:54 | 34.84956 | 128.78465 | 5997 ft | 253 kts | 262° |
| 2026-05-04 13:54 | 34.84731 | 128.76344 | 5997 ft | 253 kts | 262° |
| 2026-05-04 13:54 | 34.84281 | 128.72107 | 5997 ft | 253 kts | 262° |
| 2026-05-04 13:55 | 34.84056 | 128.69998 | 5997 ft | 253 kts | 262° |
| 2026-05-04 13:55 | 34.83605 | 128.65749 | 5997 ft | 253 kts | 262° |
| 2026-05-04 13:55 | 34.83380 | 128.63635 | 5997 ft | 253 kts | 262° |
| 2026-05-04 13:56 | 34.83155 | 128.61514 | 5997 ft | 253 kts | 262° |
| 2026-05-04 13:56 | 34.82928 | 128.59381 | 5997 ft | 253 kts | 262° |
| 2026-05-04 13:56 | 34.82478 | 128.55147 | 5997 ft | 253 kts | 262° |
| 2026-05-04 13:57 | 34.82251 | 128.53033 | 5996 ft | 253 kts | 261° |
| 2026-05-04 13:57 | 34.81654 | 128.51022 | 5975 ft | 250 kts | 232° |
| 2026-05-04 13:58 | 34.77085 | 128.50078 | 5998 ft | 246 kts | 145° |
| 2026-05-04 13:58 | 34.74356 | 128.52594 | 5997 ft | 247 kts | 142° |
| 2026-05-04 13:58 | 34.72992 | 128.53882 | 5997 ft | 247 kts | 142° |
| 2026-05-04 13:59 | 34.71648 | 128.55150 | 5997 ft | 247 kts | 142° |
| 2026-05-04 13:59 | 34.70291 | 128.56432 | 5997 ft | 247 kts | 141° |
| 2026-05-04 13:59 | 34.69068 | 128.60045 | 5997 ft | 248 kts | 76° |
| 2026-05-04 14:00 | 34.69838 | 128.61916 | 5999 ft | 250 kts | 49° |
| 2026-05-04 14:00 | 34.72895 | 128.63818 | 6001 ft | 252 kts | 18° |
| 2026-05-04 14:00 | 34.74563 | 128.64452 | 5998 ft | 252 kts | 18° |
| 2026-05-04 14:01 | 34.76235 | 128.65111 | 5997 ft | 252 kts | 19° |
| 2026-05-04 14:01 | 34.77882 | 128.65778 | 5997 ft | 252 kts | 19° |
| 2026-05-04 14:01 | 34.81081 | 128.67099 | 5982 ft | 231 kts | 20° |
| 2026-05-04 14:02 | 34.82594 | 128.67731 | 5998 ft | 230 kts | 20° |
| 2026-05-04 14:02 | 34.84114 | 128.68368 | 5997 ft | 230 kts | 20° |
| 2026-05-04 14:02 | 34.85621 | 128.69002 | 5998 ft | 230 kts | 20° |
| 2026-05-04 14:02 | 34.87130 | 128.69635 | 5998 ft | 230 kts | 20° |
| 2026-05-04 14:03 | 34.88622 | 128.70264 | 5878 ft | 226 kts | 20° |
| 2026-05-04 14:03 | 34.90129 | 128.70897 | 5561 ft | 228 kts | 20° |
| 2026-05-04 14:03 | 34.91622 | 128.71526 | 5289 ft | 228 kts | 20° |
| 2026-05-04 14:03 | 34.93109 | 128.72162 | 5090 ft | 223 kts | 18° |
| 2026-05-04 14:04 | 34.95926 | 128.73344 | 4778 ft | 206 kts | 18° |
| 2026-05-04 14:04 | 34.97288 | 128.73915 | 4455 ft | 210 kts | 18° |
| 2026-05-04 14:04 | 34.98651 | 128.74492 | 4123 ft | 207 kts | 19° |
| 2026-05-04 14:05 | 35.01192 | 128.76121 | 3989 ft | 212 kts | 35° |
| 2026-05-04 14:05 | 35.02378 | 128.77202 | 3998 ft | 204 kts | 37° |
| 2026-05-04 14:05 | 35.03457 | 128.78207 | 3920 ft | 195 kts | 37° |
| 2026-05-04 14:06 | 35.04537 | 128.79210 | 3555 ft | 197 kts | 37° |
| 2026-05-04 14:06 | 35.05623 | 128.80212 | 3229 ft | 193 kts | 37° |
| 2026-05-04 14:06 | 35.06658 | 128.81163 | 2955 ft | 182 kts | 37° |
| 2026-05-04 14:06 | 35.07650 | 128.82074 | 2707 ft | 175 kts | 37° |
| 2026-05-04 14:07 | 35.08580 | 128.82930 | 2638 ft | 161 kts | 37° |
| 2026-05-04 14:07 | 35.09479 | 128.83757 | 2649 ft | 162 kts | 37° |
| 2026-05-04 14:07 | 35.10362 | 128.84570 | 2598 ft | 154 kts | 37° |
| 2026-05-04 14:07 | 35.11217 | 128.85359 | 2472 ft | 154 kts | 38° |
| 2026-05-04 14:08 | 35.12058 | 128.86154 | 2353 ft | 153 kts | 38° |
| 2026-05-04 14:08 | 35.12909 | 128.86961 | 2232 ft | 153 kts | 38° |
| 2026-05-04 14:08 | 35.13742 | 128.87750 | 2160 ft | 152 kts | 38° |
| 2026-05-04 14:08 | 35.14582 | 128.88548 | 2092 ft | 154 kts | 38° |
| 2026-05-04 14:09 | 35.16439 | 128.89511 | 1726 ft | 149 kts | 343° |
| 2026-05-04 14:09 | 35.17450 | 128.89178 | 1763 ft | 152 kts | 351° |
| 2026-05-04 14:10 | 35.19536 | 128.88890 | 1745 ft | 151 kts | 353° |
| 2026-05-04 14:10 | 35.20586 | 128.88751 | 1605 ft | 152 kts | 353° |
| 2026-05-04 14:10 | 35.21624 | 128.88817 | 1338 ft | 150 kts | 25° |
| 2026-05-04 14:10 | 35.22304 | 128.89722 | 1102 ft | 148 kts | 76° |
| 2026-05-04 14:11 | 35.22200 | 128.90933 | 883 ft | 145 kts | 117° |
| 2026-05-04 14:11 | 35.21185 | 128.93010 | 548 ft | 143 kts | 143° |
| 2026-05-04 14:11 | 35.20255 | 128.93405 | 347 ft | 144 kts | 180° |
| 2026-05-04 14:12 | 35.19268 | 128.93526 | 140 ft | 142 kts | 175° |
| 2026-05-04 14:12 | 35.18310 | 128.93651 | 33 ft | 129 kts | 174° |
| 2026-05-04 14:12 | 35.17166 | 128.93800 | 20 ft | 43 kts | 174° |
| 2026-05-04 14:13 | 35.16875 | 128.93835 | 19 ft | 41 kts | 175° |
| 2026-05-04 14:13 | 35.16645 | 128.93866 | 18 ft | 23 kts | 173° |
| 2026-05-04 14:13 | 35.16542 | 128.93935 | 18 ft | 15 kts | 100° |
| 2026-05-04 14:13 | 35.16550 | 128.94070 | 18 ft | 16 kts | 82° |
| 2026-05-04 14:14 | 35.16592 | 128.94192 | 18 ft | 14 kts | 51° |
| 2026-05-04 14:14 | 35.16754 | 128.94318 | 18 ft | 14 kts | 19° |
| 2026-05-04 14:14 | 35.16859 | 128.94334 | 19 ft | 15 kts | 357° |
| 2026-05-04 14:15 | 35.16995 | 128.94392 | 19 ft | 14 kts | 79° |
| 2026-05-04 14:15 | 35.16961 | 128.94638 | 20 ft | 14 kts | 114° |
| 2026-05-04 14:16 | 35.16939 | 128.94789 | 20 ft | 7 kts | 38° |
| 2026-05-04 14:16 | 35.16972 | 128.94810 | 20 ft | 2 kts | 24° |
| 2026-05-04 14:17 | 35.16975 | 128.94812 | 20 ft | 0 kts | 24° |